createdAt,value
2023-05-25T00:01:03.000Z,9.93
2023-05-25T00:03:31.989Z,10.10
2023-05-25T00:06:01.672Z,7.55
2023-05-25T00:08:29.713Z,9.07
2023-05-25T00:10:56.637Z,12.07
2023-05-25T00:13:23.281Z,8.02
2023-05-25T00:15:50.234Z,11.73
2023-05-25T00:18:16.965Z,6.95
2023-05-25T00:20:44.687Z,8.65
2023-05-25T00:23:11.485Z,9.88
2023-05-25T00:25:38.185Z,11.10
2023-05-25T00:28:05.002Z,8.95
2023-05-25T00:30:31.707Z,8.73
2023-05-25T00:32:59.878Z,10.00
2023-05-25T00:35:26.426Z,10.98
2023-05-25T00:37:53.038Z,7.72
2023-05-25T00:40:19.886Z,13.48
2023-05-25T00:42:47.400Z,7.47
2023-05-25T00:45:13.996Z,5.38
2023-05-25T00:47:41.652Z,11.65
2023-05-25T00:50:09.697Z,12.00
2023-05-25T00:52:36.813Z,11.02
2023-05-25T00:55:04.206Z,8.20
2023-05-25T00:57:34.274Z,13.30
2023-05-25T01:00:05.059Z,14.88
2023-05-25T01:02:33.584Z,11.90
2023-05-25T01:05:02.657Z,6.35
2023-05-25T01:07:31.216Z,11.25
2023-05-25T01:10:02.315Z,9.77
2023-05-25T01:12:30.418Z,10.55
2023-05-25T01:14:58.187Z,10.95
2023-05-25T01:17:25.529Z,9.55
2023-05-25T01:20:08.807Z,10.63
2023-05-25T01:22:57.812Z,9.60
2023-05-25T01:25:36.702Z,8.35
2023-05-25T01:28:11.316Z,7.95
2023-05-25T01:30:42.348Z,10.48
2023-05-25T01:33:11.046Z,10.80
2023-05-25T01:35:39.483Z,10.00
2023-05-25T01:38:07.070Z,10.40
2023-05-25T01:40:33.752Z,10.25
2023-05-25T01:43:00.496Z,9.98
2023-05-25T01:45:28.215Z,6.75
2023-05-25T01:48:09.418Z,9.32
2023-05-25T01:50:45.176Z,7.85
2023-05-25T01:53:34.459Z,7.85
2023-05-25T01:56:08.836Z,10.93
2023-05-25T01:58:40.929Z,9.65
2023-05-25T02:01:09.413Z,10.43
2023-05-25T02:03:41.722Z,7.65
2023-05-25T02:06:08.722Z,11.77
2023-05-25T02:08:35.607Z,9.27
2023-05-25T02:11:03.647Z,10.95
2023-05-25T02:13:30.317Z,10.10
2023-05-25T02:15:56.968Z,8.60
2023-05-25T02:18:23.806Z,10.57
2023-05-25T02:20:50.407Z,10.00
2023-05-25T02:23:18.968Z,14.40
2023-05-25T02:25:46.563Z,10.57
2023-05-25T02:28:14.414Z,9.60
2023-05-25T02:30:41.061Z,9.60
2023-05-25T02:33:07.722Z,9.88
2023-05-25T02:38:02.573Z,13.50
2023-05-25T02:40:29.188Z,12.13
2023-05-25T02:42:55.895Z,11.82
2023-05-25T02:45:22.490Z,11.27
2023-05-25T02:47:49.222Z,11.45
2023-05-25T02:50:15.769Z,10.50
2023-05-25T02:52:42.521Z,9.32
2023-05-25T02:55:13.618Z,12.73
2023-05-25T02:57:41.037Z,12.68
2023-05-25T03:00:08.024Z,9.13
2023-05-25T03:02:35.104Z,9.65
2023-05-25T03:05:04.094Z,9.85
2023-05-25T03:07:31.734Z,8.55
2023-05-25T03:09:59.404Z,12.75
2023-05-25T03:12:26.028Z,10.77
2023-05-25T03:14:52.516Z,10.98
2023-05-25T03:17:19.203Z,8.07
2023-05-25T03:19:46.060Z,10.50
2023-05-25T03:22:12.687Z,9.93
2023-05-25T03:24:41.832Z,8.07
2023-05-25T03:27:08.880Z,9.95
2023-05-25T03:29:35.570Z,9.70
2023-05-25T03:32:02.282Z,10.05
2023-05-25T03:34:29.819Z,8.88
2023-05-25T03:36:56.561Z,12.15
2023-05-25T03:39:23.254Z,11.73
2023-05-25T03:41:49.992Z,10.32
2023-05-25T03:44:16.766Z,12.70
2023-05-25T03:46:43.653Z,8.30
2023-05-25T03:49:13.854Z,10.50
2023-05-25T03:51:44.426Z,9.60
2023-05-25T03:54:12.177Z,9.20
2023-05-25T03:56:38.739Z,10.77
2023-05-25T03:59:05.274Z,13.00
2023-05-25T04:01:31.786Z,12.18
2023-05-25T04:03:58.538Z,9.05
2023-05-25T04:06:30.083Z,13.52
2023-05-25T04:08:57.947Z,10.98
2023-05-25T04:11:25.627Z,13.77
2023-05-25T04:13:52.080Z,14.43
2023-05-25T04:16:18.904Z,9.75
2023-05-25T04:18:45.551Z,11.05
2023-05-25T04:21:12.072Z,8.95
2023-05-25T04:23:38.615Z,12.45
2023-05-25T04:26:13.370Z,10.70
2023-05-25T04:28:43.156Z,10.25
2023-05-25T04:31:09.889Z,12.93
2023-05-25T04:33:38.946Z,13.52
2023-05-25T04:36:06.441Z,12.52
2023-05-25T04:38:33.360Z,12.80
2023-05-25T04:41:02.020Z,10.40
2023-05-25T04:43:29.996Z,11.77
2023-05-25T04:45:57.702Z,12.00
2023-05-25T04:48:24.741Z,14.00
2023-05-25T04:50:53.008Z,8.77
2023-05-25T04:53:20.442Z,13.65
2023-05-25T04:55:47.167Z,10.65
2023-05-25T04:58:14.760Z,13.73
2023-05-25T05:00:42.051Z,11.43
2023-05-25T05:03:08.989Z,11.30
2023-05-25T05:05:36.848Z,11.70
2023-05-25T05:08:03.774Z,9.43
2023-05-25T05:10:30.415Z,12.23
2023-05-25T05:12:57.051Z,16.30
2023-05-25T05:15:23.666Z,10.07
2023-05-25T05:17:50.255Z,13.52
2023-05-25T05:20:16.927Z,13.60
2023-05-25T05:22:43.793Z,10.32
2023-05-25T05:25:10.519Z,11.90
2023-05-25T05:27:37.137Z,13.70
2023-05-25T05:30:04.105Z,13.23
2023-05-25T05:32:30.776Z,19.25
2023-05-25T05:34:57.421Z,13.82
2023-05-25T05:37:23.979Z,13.02
2023-05-25T05:39:52.638Z,11.05
2023-05-25T05:42:19.296Z,13.82
2023-05-25T05:44:45.892Z,15.15
2023-05-25T05:47:12.390Z,12.10
2023-05-25T05:49:39.509Z,13.43
2023-05-25T05:52:06.806Z,14.02
2023-05-25T05:54:33.414Z,11.38
2023-05-25T05:56:59.927Z,16.33
2023-05-25T05:59:26.601Z,15.70
2023-05-25T06:01:53.226Z,18.55
2023-05-25T06:04:19.856Z,13.18
2023-05-25T06:06:47.043Z,17.55
2023-05-25T06:09:13.849Z,16.13
2023-05-25T06:11:40.683Z,12.15
2023-05-25T06:14:07.235Z,12.52
2023-05-25T06:16:33.959Z,12.30
2023-05-25T06:19:01.222Z,14.00
2023-05-25T06:21:27.853Z,15.82
2023-05-25T06:23:55.217Z,16.02
2023-05-25T06:26:22.106Z,10.13
2023-05-25T06:28:50.067Z,17.52
2023-05-25T06:31:16.764Z,16.83
2023-05-25T06:33:43.292Z,15.15
2023-05-25T06:36:11.027Z,15.05
2023-05-25T06:38:37.622Z,14.57
2023-05-25T06:41:05.547Z,17.27
2023-05-25T06:43:32.349Z,15.15
2023-05-25T06:45:59.539Z,18.40
2023-05-25T06:48:26.533Z,18.40
2023-05-25T06:50:53.110Z,16.10
2023-05-25T06:53:19.759Z,13.35
2023-05-25T06:55:46.441Z,17.13
2023-05-25T06:58:14.883Z,13.00
2023-05-25T07:00:41.613Z,19.90
2023-05-25T07:03:08.259Z,16.80
2023-05-25T07:05:34.842Z,11.48
2023-05-25T07:08:01.417Z,13.77
2023-05-25T07:10:28.045Z,16.90
2023-05-25T07:12:54.608Z,14.98
2023-05-25T07:15:22.775Z,15.15
2023-05-25T07:17:50.147Z,13.73
2023-05-25T07:20:16.858Z,20.63
2023-05-25T07:22:43.788Z,15.45
2023-05-25T07:25:10.520Z,18.45
2023-05-25T07:27:37.196Z,12.80
2023-05-25T07:30:04.736Z,14.73
2023-05-25T07:32:31.344Z,12.85
2023-05-25T07:34:58.037Z,11.00
2023-05-25T07:37:24.872Z,14.25
2023-05-25T07:39:51.603Z,17.10
2023-05-25T07:42:21.806Z,13.82
2023-05-25T07:44:49.122Z,15.77
2023-05-25T07:47:15.986Z,18.27
2023-05-25T07:49:42.634Z,10.55
2023-05-25T07:52:09.283Z,16.42
2023-05-25T07:54:40.091Z,12.73
2023-05-25T07:57:07.819Z,15.80
2023-05-25T07:59:34.603Z,12.48
2023-05-25T08:02:01.247Z,10.82
2023-05-25T08:04:28.049Z,11.63
2023-05-25T08:06:54.684Z,14.20
2023-05-25T08:09:21.504Z,10.27
2023-05-25T08:11:47.977Z,9.13
2023-05-25T08:14:14.609Z,14.25
2023-05-25T08:16:41.555Z,11.50
2023-05-25T08:19:08.167Z,13.93
2023-05-25T08:21:35.219Z,11.23
2023-05-25T08:24:04.283Z,11.77
2023-05-25T08:26:45.378Z,10.57
2023-05-25T08:29:18.508Z,13.25
2023-05-25T08:31:49.479Z,12.55
2023-05-25T08:34:16.904Z,13.07
2023-05-25T08:39:35.896Z,12.88
2023-05-25T08:42:03.892Z,11.23
2023-05-25T08:44:30.565Z,14.68
2023-05-25T08:46:58.138Z,11.38
2023-05-25T08:49:26.522Z,10.85
2023-05-25T08:51:55.417Z,12.25
2023-05-25T08:54:30.239Z,14.05
2023-05-25T08:57:03.517Z,14.05
2023-05-25T08:59:42.234Z,13.30
2023-05-25T09:02:32.372Z,12.77
2023-05-25T09:05:01.732Z,11.90
2023-05-25T09:07:29.618Z,10.00
2023-05-25T09:09:57.809Z,9.82
2023-05-25T09:12:24.487Z,10.20
2023-05-25T09:14:53.560Z,11.15
2023-05-25T09:17:21.202Z,15.73
2023-05-25T09:19:47.993Z,9.77
2023-05-25T09:22:16.553Z,9.73
2023-05-25T09:24:44.833Z,13.20
2023-05-25T09:27:13.425Z,13.45
2023-05-25T09:29:40.072Z,12.25
2023-05-25T09:32:07.193Z,9.93
2023-05-25T09:34:34.154Z,10.27
2023-05-25T09:37:03.900Z,13.15
2023-05-25T09:39:30.999Z,8.35
2023-05-25T09:41:59.285Z,9.68
2023-05-25T09:44:27.006Z,8.65
2023-05-25T09:46:53.691Z,11.82
2023-05-25T09:49:21.303Z,6.95
2023-05-25T09:51:48.502Z,7.85
2023-05-25T09:54:15.728Z,9.50
2023-05-25T09:56:42.598Z,9.25
2023-05-25T09:59:09.356Z,6.50
2023-05-25T10:01:36.784Z,9.32
2023-05-25T10:04:04.733Z,5.82
2023-05-25T10:06:35.116Z,7.70
2023-05-25T10:09:03.419Z,9.30
2023-05-25T10:11:31.498Z,7.88
2023-05-25T10:14:03.835Z,8.95
2023-05-25T10:16:33.480Z,8.02
2023-05-25T10:19:22.032Z,6.32
2023-05-25T10:21:59.686Z,10.65
2023-05-25T10:24:39.194Z,11.05
2023-05-25T10:27:22.423Z,9.18
2023-05-25T10:29:57.283Z,8.25
2023-05-25T10:32:24.797Z,11.02
2023-05-25T10:34:52.459Z,7.85
2023-05-25T10:37:19.292Z,8.35
2023-05-25T10:39:46.343Z,8.35
2023-05-25T10:42:13.329Z,8.82
2023-05-25T10:44:43.485Z,10.80
2023-05-25T10:47:10.792Z,8.18
2023-05-25T10:49:55.525Z,6.93
2023-05-25T10:52:26.565Z,11.00
2023-05-25T10:54:56.594Z,9.48
2023-05-25T10:57:24.208Z,10.13
2023-05-25T10:59:52.177Z,9.38
2023-05-25T11:02:24.897Z,8.82
2023-05-25T11:05:30.875Z,7.93
2023-05-25T11:07:59.130Z,9.07
2023-05-25T11:10:53.082Z,10.75
2023-05-25T11:13:32.051Z,8.18
2023-05-25T11:16:09.326Z,6.15
2023-05-25T11:18:41.383Z,8.23
2023-05-25T11:21:16.795Z,9.63
2023-05-25T11:24:04.378Z,13.35
2023-05-25T11:26:33.625Z,11.25
2023-05-25T11:29:02.109Z,10.48
2023-05-25T11:31:36.435Z,8.88
2023-05-25T11:34:06.262Z,11.77
2023-05-25T11:36:36.921Z,11.38
2023-05-25T11:39:11.665Z,10.48
2023-05-25T11:41:52.611Z,10.38
2023-05-25T11:44:30.075Z,12.13
2023-05-25T11:47:01.623Z,13.18
2023-05-25T11:49:28.519Z,10.35
2023-05-25T11:51:57.072Z,13.52
2023-05-25T11:54:28.800Z,12.55
2023-05-25T11:56:59.371Z,13.70
2023-05-25T11:59:29.799Z,13.02
2023-05-25T12:01:59.601Z,12.20
2023-05-25T12:04:26.918Z,9.52
2023-05-25T12:07:01.404Z,11.00
2023-05-25T12:09:28.065Z,10.35
2023-05-25T12:11:54.830Z,10.80
2023-05-25T12:14:21.688Z,11.95
2023-05-25T12:16:48.503Z,11.10
2023-05-25T12:19:16.952Z,10.85
2023-05-25T12:21:43.823Z,9.55
2023-05-25T12:24:14.504Z,11.63
2023-05-25T12:26:49.433Z,13.20
2023-05-25T12:29:16.487Z,13.35
2023-05-25T12:31:43.131Z,11.25
2023-05-25T12:34:15.322Z,10.40
2023-05-25T12:36:46.458Z,10.27
2023-05-25T12:39:14.655Z,9.90
2023-05-25T12:41:54.225Z,15.27
2023-05-25T12:44:37.562Z,11.93
2023-05-25T12:47:19.931Z,9.30
2023-05-25T12:49:51.337Z,13.18
2023-05-25T12:52:36.829Z,12.05
2023-05-25T12:55:29.073Z,12.95
2023-05-25T12:58:01.440Z,11.73
2023-05-25T13:00:36.085Z,12.95
2023-05-25T13:03:03.645Z,10.73
2023-05-25T13:05:36.936Z,11.52
2023-05-25T13:08:05.335Z,12.98
2023-05-25T13:10:33.043Z,11.57
2023-05-25T13:13:00.702Z,13.43
2023-05-25T13:15:27.649Z,16.10
2023-05-25T13:17:56.407Z,11.13
2023-05-25T13:20:25.535Z,12.57
2023-05-25T13:22:53.583Z,15.98
2023-05-25T13:25:22.395Z,11.15
2023-05-25T13:27:51.057Z,10.88
2023-05-25T13:30:17.980Z,11.18
2023-05-25T13:32:45.018Z,10.32
2023-05-25T13:35:18.626Z,13.15
2023-05-25T13:37:48.027Z,18.33
2023-05-25T13:40:14.916Z,10.60
2023-05-25T13:42:41.498Z,13.40
2023-05-25T13:45:08.792Z,12.63
2023-05-25T13:47:35.517Z,11.38
2023-05-25T13:50:02.275Z,13.75
2023-05-25T13:52:28.854Z,15.05
2023-05-25T13:54:55.488Z,15.95
2023-05-25T13:57:22.620Z,11.23
2023-05-25T13:59:49.435Z,13.18
2023-05-25T14:02:16.551Z,12.55
2023-05-25T14:04:43.189Z,10.27
2023-05-25T14:07:09.778Z,11.38
2023-05-25T14:09:36.619Z,11.68
2023-05-25T14:12:03.400Z,11.05
2023-05-25T14:14:32.458Z,15.30
2023-05-25T14:17:00.261Z,11.25
2023-05-25T14:19:27.122Z,10.23
2023-05-25T14:22:11.180Z,13.15
2023-05-25T14:24:38.924Z,13.98
2023-05-25T14:27:07.214Z,13.60
2023-05-25T14:29:34.282Z,11.52
2023-05-25T14:32:01.410Z,13.68
2023-05-25T14:34:28.646Z,11.10
2023-05-25T14:36:55.392Z,14.95
2023-05-25T14:39:22.022Z,13.18
2023-05-25T14:41:48.611Z,10.93
2023-05-25T14:44:15.354Z,12.63
2023-05-25T14:46:41.995Z,8.80
2023-05-25T14:49:08.750Z,12.30
2023-05-25T14:51:35.871Z,10.07
2023-05-25T14:54:05.664Z,7.90
2023-05-25T14:56:32.442Z,15.27
2023-05-25T14:58:58.962Z,12.02
2023-05-25T15:01:25.778Z,11.48
2023-05-25T15:03:52.641Z,14.30
2023-05-25T15:06:19.604Z,15.55
2023-05-25T15:08:46.413Z,13.85
2023-05-25T15:11:13.059Z,10.40
2023-05-25T15:13:40.950Z,10.63
2023-05-25T15:16:11.302Z,12.82
2023-05-25T15:18:37.912Z,10.60
2023-05-25T15:21:04.606Z,10.32
2023-05-25T15:23:32.167Z,9.23
2023-05-25T15:26:03.181Z,10.48
2023-05-25T15:28:35.652Z,10.60
2023-05-25T15:31:03.427Z,12.95
2023-05-25T15:33:48.360Z,15.00
2023-05-25T15:36:18.512Z,17.35
2023-05-25T15:38:48.928Z,12.38
2023-05-25T15:41:18.872Z,8.98
2023-05-25T15:43:52.574Z,9.75
2023-05-25T15:46:19.487Z,14.63
2023-05-25T15:48:46.061Z,11.98
2023-05-25T15:51:12.718Z,11.70
2023-05-25T15:53:39.247Z,12.15
2023-05-25T15:56:05.944Z,17.23
2023-05-25T15:58:34.517Z,10.43
2023-05-25T16:01:01.565Z,11.48
2023-05-25T16:03:28.634Z,12.35
2023-05-25T16:05:55.800Z,10.00
2023-05-25T16:08:22.576Z,11.75
2023-05-25T16:10:49.395Z,11.73
2023-05-25T16:13:16.220Z,10.25
2023-05-25T16:15:42.989Z,14.30
2023-05-25T16:18:09.702Z,11.07
2023-05-25T16:20:36.633Z,13.45
2023-05-25T16:23:03.328Z,14.20
2023-05-25T16:25:29.966Z,14.13
2023-05-25T16:27:56.642Z,13.43
2023-05-25T16:30:23.762Z,12.25
2023-05-25T16:32:50.687Z,11.32
2023-05-25T16:35:17.343Z,10.10
2023-05-25T16:37:44.758Z,13.80
2023-05-25T16:40:11.612Z,12.45
2023-05-25T16:42:38.199Z,13.82
2023-05-25T16:45:05.376Z,14.50
2023-05-25T16:47:31.921Z,14.52
2023-05-25T16:49:58.554Z,10.77
2023-05-25T16:52:25.085Z,12.70
2023-05-25T16:54:51.588Z,14.05
2023-05-25T16:57:18.280Z,13.55
2023-05-25T16:59:45.639Z,17.55
2023-05-25T17:02:12.245Z,19.75
2023-05-25T17:04:38.870Z,15.38
2023-05-25T17:07:06.341Z,11.98
2023-05-25T17:09:33.181Z,17.92
2023-05-25T17:12:01.648Z,15.77
2023-05-25T17:14:28.310Z,14.43
2023-05-25T17:16:54.996Z,14.85
2023-05-25T17:19:24.756Z,17.10
2023-05-25T17:29:25.879Z,15.90
2023-05-25T17:31:52.416Z,14.30
2023-05-25T17:34:18.934Z,16.48
2023-05-25T17:36:45.365Z,13.65
2023-05-25T17:39:11.851Z,17.15
2023-05-25T17:41:38.328Z,13.98
2023-05-25T17:44:04.812Z,16.95
2023-05-25T17:46:31.358Z,18.17
2023-05-25T17:48:57.968Z,20.10
2023-05-25T17:51:24.371Z,22.60
2023-05-25T17:53:50.968Z,21.73
2023-05-25T17:56:17.373Z,16.67
2023-05-25T17:58:47.317Z,18.38
2023-05-25T18:01:15.142Z,16.75
2023-05-25T18:03:42.093Z,17.73
2023-05-25T18:06:08.570Z,15.63
2023-05-25T18:08:35.034Z,15.23
2023-05-25T18:11:01.602Z,20.90
2023-05-25T18:13:28.085Z,17.55
2023-05-25T18:15:54.526Z,17.70
2023-05-25T18:18:23.147Z,19.17
2023-05-25T18:20:49.625Z,15.90
2023-05-25T18:23:16.317Z,22.05
2023-05-25T18:25:42.804Z,16.67
2023-05-25T18:28:09.449Z,16.48
2023-05-25T18:30:35.845Z,16.95
2023-05-25T18:33:03.408Z,17.20
2023-05-25T18:35:29.850Z,18.67
2023-05-25T18:37:56.364Z,19.30
2023-05-25T18:40:23.197Z,18.63
2023-05-25T18:42:50.776Z,20.50
2023-05-25T18:45:17.218Z,15.90
2023-05-25T18:47:44.107Z,16.13
2023-05-25T18:50:11.841Z,20.42
2023-05-25T18:52:38.606Z,19.55
2023-05-25T18:55:06.231Z,17.75
2023-05-25T18:57:32.984Z,26.10
2023-05-25T18:59:59.522Z,20.35
2023-05-25T19:02:26.403Z,24.38
2023-05-25T19:04:53.128Z,17.85
2023-05-25T19:07:19.581Z,21.58
2023-05-25T19:09:47.960Z,36.38
2023-05-25T19:12:15.411Z,22.60
2023-05-25T19:14:42.056Z,23.90
2023-05-25T19:17:08.740Z,17.83
2023-05-25T19:19:35.236Z,17.63
2023-05-25T19:22:01.641Z,21.75
2023-05-25T19:24:28.062Z,22.92
2023-05-25T19:26:54.550Z,18.30
2023-05-25T19:29:21.148Z,14.50
2023-05-25T19:31:47.551Z,19.38
2023-05-25T19:34:14.156Z,19.13
2023-05-25T19:36:40.653Z,20.58
2023-05-25T19:39:07.197Z,18.38
2023-05-25T19:41:33.619Z,18.83
2023-05-25T19:44:00.161Z,18.38
2023-05-25T19:46:26.666Z,18.80
2023-05-25T19:48:53.377Z,14.00
2023-05-25T20:01:52.697Z,15.73
2023-05-25T20:04:19.206Z,15.90
2023-05-25T20:06:45.917Z,18.20
2023-05-25T20:09:13.987Z,19.40
2023-05-25T20:11:41.539Z,20.40
2023-05-25T20:14:08.014Z,14.25
2023-05-25T20:16:34.728Z,20.35
2023-05-25T20:19:01.973Z,19.75
2023-05-25T20:21:28.908Z,20.50
2023-05-25T20:23:56.763Z,15.52
2023-05-25T20:26:23.317Z,13.75
2023-05-25T20:28:49.698Z,15.50
2023-05-25T20:31:16.438Z,17.70
2023-05-25T20:33:43.169Z,21.55
2023-05-25T20:36:09.920Z,21.05
2023-05-25T20:41:36.419Z,19.65
2023-05-25T20:44:06.368Z,15.48
2023-05-25T20:46:34.130Z,14.45
2023-05-25T20:49:01.036Z,18.23
2023-05-25T20:51:27.558Z,22.67
2023-05-25T20:53:54.245Z,19.60
2023-05-25T20:56:21.535Z,14.75
2023-05-25T20:58:48.158Z,18.77
2023-05-25T21:01:15.655Z,16.90
2023-05-25T21:03:42.338Z,24.02
2023-05-25T21:06:09.006Z,25.30
2023-05-25T21:08:35.613Z,18.70
2023-05-25T21:11:02.535Z,16.67
2023-05-25T21:13:29.086Z,19.67
2023-05-25T21:15:55.859Z,16.25
2023-05-25T21:18:22.487Z,17.65
2023-05-25T21:20:49.226Z,19.67
2023-05-25T21:23:15.761Z,14.60
2023-05-25T21:25:42.375Z,18.60
2023-05-25T21:28:10.346Z,18.45
2023-05-25T21:30:36.836Z,20.92
2023-05-25T21:33:03.450Z,13.85
2023-05-25T21:35:29.883Z,17.85
2023-05-25T21:37:56.510Z,19.33
2023-05-25T21:40:22.973Z,19.38
2023-05-25T21:42:51.249Z,19.45
2023-05-25T21:45:17.907Z,13.85
2023-05-25T21:47:44.500Z,16.48
2023-05-25T21:50:11.088Z,22.17
2023-05-25T21:52:37.729Z,17.23
2023-05-25T21:55:04.794Z,17.52
2023-05-25T21:57:31.288Z,15.93
2023-05-25T21:59:57.728Z,17.33
2023-05-25T22:02:24.327Z,24.67
2023-05-25T22:04:51.038Z,20.20
2023-05-25T22:07:17.485Z,16.95
2023-05-25T22:09:44.044Z,21.58
2023-05-25T22:12:12.734Z,20.98
2023-05-25T22:14:39.399Z,17.05
2023-05-25T22:17:06.151Z,17.25
2023-05-25T22:19:32.784Z,17.83
2023-05-25T22:21:59.359Z,24.38
2023-05-25T22:24:25.919Z,25.58
2023-05-25T22:26:52.475Z,20.15
2023-05-25T22:29:19.037Z,19.02
2023-05-25T22:31:45.946Z,16.60
2023-05-25T22:34:12.497Z,16.52
2023-05-25T22:36:38.993Z,24.33
2023-05-25T22:39:05.579Z,18.92
2023-05-25T22:41:32.098Z,21.15
2023-05-25T22:43:58.703Z,18.55
2023-05-25T22:46:25.259Z,23.00
2023-05-25T22:48:51.954Z,19.95
2023-05-25T22:51:18.535Z,17.90
2023-05-25T22:53:45.032Z,23.60
2023-05-25T22:56:11.711Z,19.00
2023-05-25T22:58:38.596Z,21.67
2023-05-25T23:01:05.402Z,20.73
2023-05-25T23:03:32.133Z,17.20
2023-05-25T23:05:58.808Z,21.73
2023-05-25T23:08:25.521Z,16.38
2023-05-25T23:10:52.063Z,21.63
2023-05-25T23:13:19.274Z,23.17
2023-05-25T23:15:47.582Z,15.07
2023-05-25T23:18:14.361Z,20.33
2023-05-25T23:20:41.077Z,22.05
2023-05-25T23:23:07.748Z,15.98
2023-05-25T23:25:34.345Z,24.95
2023-05-25T23:28:00.851Z,24.23
2023-05-25T23:30:27.460Z,21.55
2023-05-25T23:32:54.095Z,24.92
2023-05-25T23:35:22.390Z,24.23
2023-05-25T23:37:50.164Z,19.48
2023-05-25T23:40:16.647Z,21.27
2023-05-25T23:42:43.899Z,20.15
2023-05-25T23:45:10.809Z,24.30
2023-05-25T23:47:37.336Z,25.58
2023-05-25T23:50:04.191Z,20.13
2023-05-25T23:52:30.914Z,20.48
2023-05-25T23:54:57.447Z,20.58
2023-05-25T23:57:23.955Z,23.05
2023-05-25T23:59:50.660Z,16.58
